ENBRENVD

Guest
Details From ENBR - Bergen Lufthavn Flesland
To ENVD - Vadso
Flight Number -
Tags Generated
Created
Modified
Stats Distance 843 nm / 1,561 km
Max Altitude 0 ft / 0 m
Waypoints 4
Social Downloads 3
Likes 0
Share VATSIM

Download

Looking for another format? Having issues loading an existing format? Contact us
Advertisement - Login to hide

Notes

Generated

Route

ENBR OGNAN VADLA ENVD

ID Type Via Altitude Latitude Longitude Leg Dist Tot Dist Heading (true) Name
O ENBR APT - 0 ft / 0 m 60.30662˚ 5.21370˚ - 0 nm - -
OGNAN FIX - 0 ft / 0 m 64.14050˚ 11.62433˚ 291 nm 291 nm 35° / 41° -
VADLA FIX - 0 ft / 0 m 69.75167˚ 28.79500˚ 522 nm 814 nm 42° / 58° -
O ENVD APT - 0 ft / 0 m 70.06502˚ 29.83244˚ 28 nm 842 nm 48° / 49° -

Altitude Profile

Advertisement - Login to hide

Weather


0- 5 10 15 20 25 30 35+ Temperature / ° C

Clouds and Precipitation
Forecast for 2017-12-16 00:00 UTC. Updated 25 minutes ago

Ground ~20,000 ft ~40,000 ft Winds

ENBR

Details ICAO ENBR (BGO)
Name Bergen Lufthavn Flesland
Region Norway
Timezone Europe/Oslo (UTC+1.0)
Stats Elevation 165 ft / 50 m (AMSL)
Location 60.293388° 5.218140°
Runways 1
Magnetic Variation 0.841° E

METAR

ENBR 152120Z 04004KT CAVOK M05/M07 Q0998 RMK WIND 1200FT 36011KT

Decode

TAF

TAF ENBR 151700Z 1518/1618 36007KT 9999 FEW015CB SCT040 TEMPO 1604/1612 1200 SHSN VV009

Decode

Departure Runways

ID Width Length Bearing (true) Bearing (mag) Surface Threshold Offset Overrun Length
17 148 ft / 45 m 9,793 ft / 2,985 m 170.56° 169.72° Asphalt 886 ft / 270 m 0 ft / 0 m
35 148 ft / 45 m 9,793 ft / 2,985 m 350.57° 349.73° Asphalt 886 ft / 270 m 0 ft / 0 m

ENVD

Details ICAO ENVD (VDS)
Name Vadso
Region Norway
Timezone Europe/Oslo (UTC+1.0)
Stats Elevation 125 ft / 38 m (AMSL)
Location 70.065224° 29.844034°
Runways 1
Magnetic Variation 15.085° E

METAR

ENVD 152050Z 20014KT 9999 FEW045 M04/M06 Q0999

Decode

TAF

Not found

Destination Runways

ID Width Length Bearing (true) Bearing (mag) Surface Threshold Offset Overrun Length
09 98 ft / 30 m 2,889 ft / 880 m 86.99° 71.91° Asphalt 0 ft / 0 m 0 ft / 0 m
27 98 ft / 30 m 2,889 ft / 880 m 267.01° 251.93° Asphalt 0 ft / 0 m 0 ft / 0 m